sensor_id;sensor_type;location;lat;lon;timestamp;pressure;altitude;pressure_sealevel;temperature;humidity
57900;BME280;60605;53.716;19.940;2022-12-07T00:04:29;99623.67;;;2.05;100.00
57900;BME280;60605;53.716;19.940;2022-12-07T00:09:32;99620.20;;;2.04;100.00
57900;BME280;60605;53.716;19.940;2022-12-07T00:14:36;99617.41;;;2.04;100.00
57900;BME280;60605;53.716;19.940;2022-12-07T00:19:39;99610.26;;;2.03;100.00
57900;BME280;60605;53.716;19.940;2022-12-07T00:24:42;99605.19;;;2.00;100.00
57900;BME280;60605;53.716;19.940;2022-12-07T00:29:46;99603.06;;;1.98;100.00
57900;BME280;60605;53.716;19.940;2022-12-07T00:34:49;99596.45;;;1.97;100.00
57900;BME280;60605;53.716;19.940;2022-12-07T00:39:53;99592.45;;;1.96;100.00
57900;BME280;60605;53.716;19.940;2022-12-07T00:44:56;99593.98;;;1.94;100.00
57900;BME280;60605;53.716;19.940;2022-12-07T00:49:59;99589.31;;;1.93;100.00
57900;BME280;60605;53.716;19.940;2022-12-07T00:55:03;99577.92;;;1.93;100.00
57900;BME280;60605;53.716;19.940;2022-12-07T01:00:07;99573.42;;;1.92;100.00
57900;BME280;60605;53.716;19.940;2022-12-07T01:05:10;99570.09;;;1.91;100.00
57900;BME280;60605;53.716;19.940;2022-12-07T01:10:14;99562.98;;;1.90;100.00
57900;BME280;60605;53.716;19.940;2022-12-07T01:15:17;99559.92;;;1.89;100.00
57900;BME280;60605;53.716;19.940;2022-12-07T01:20:21;99554.20;;;1.88;100.00
57900;BME280;60605;53.716;19.940;2022-12-07T01:25:24;99549.34;;;1.87;100.00
57900;BME280;60605;53.716;19.940;2022-12-07T01:30:28;99545.95;;;1.85;100.00
57900;BME280;60605;53.716;19.940;2022-12-07T01:35:33;99546.02;;;1.81;100.00
57900;BME280;60605;53.716;19.940;2022-12-07T01:40:36;99544.84;;;1.78;100.00
57900;BME280;60605;53.716;19.940;2022-12-07T01:45:40;99537.25;;;1.76;100.00
57900;BME280;60605;53.716;19.940;2022-12-07T01:50:45;99531.88;;;1.73;100.00
57900;BME280;60605;53.716;19.940;2022-12-07T01:55:52;99527.97;;;1.69;100.00
57900;BME280;60605;53.716;19.940;2022-12-07T02:00:56;99527.69;;;1.65;100.00
57900;BME280;60605;53.716;19.940;2022-12-07T02:06:00;99521.56;;;1.63;100.00
57900;BME280;60605;53.716;19.940;2022-12-07T02:11:07;99510.52;;;1.60;100.00
57900;BME280;60605;53.716;19.940;2022-12-07T02:16:34;99508.79;;;1.57;100.00
57900;BME280;60605;53.716;19.940;2022-12-07T02:38:16;99483.80;;;1.48;100.00
57900;BME280;60605;53.716;19.940;2022-12-07T02:43:25;99482.30;;;1.45;100.00
57900;BME280;60605;53.716;19.940;2022-12-07T02:48:30;99473.88;;;1.42;100.00
57900;BME280;60605;53.716;19.940;2022-12-07T02:53:36;99469.67;;;1.39;100.00
57900;BME280;60605;53.716;19.940;2022-12-07T03:04:25;99459.26;;;1.33;100.00
57900;BME280;60605;53.716;19.940;2022-12-07T03:15:59;99444.98;;;1.29;100.00
57900;BME280;60605;53.716;19.940;2022-12-07T03:21:11;99438.25;;;1.27;100.00
57900;BME280;60605;53.716;19.940;2022-12-07T03:26:18;99430.73;;;1.27;100.00
57900;BME280;60605;53.716;19.940;2022-12-07T03:31:26;99425.59;;;1.25;100.00
57900;BME280;60605;53.716;19.940;2022-12-07T03:36:38;99423.25;;;1.23;100.00
57900;BME280;60605;53.716;19.940;2022-12-07T03:41:42;99420.31;;;1.23;100.00
57900;BME280;60605;53.716;19.940;2022-12-07T03:46:59;99417.20;;;1.22;100.00
57900;BME280;60605;53.716;19.940;2022-12-07T03:52:39;99410.64;;;1.23;100.00
57900;BME280;60605;53.716;19.940;2022-12-07T03:57:34;99405.17;;;1.23;100.00
57900;BME280;60605;53.716;19.940;2022-12-07T04:02:39;99404.95;;;1.23;100.00
57900;BME280;60605;53.716;19.940;2022-12-07T04:07:44;99401.76;;;1.24;100.00
57900;BME280;60605;53.716;19.940;2022-12-07T04:12:47;99398.48;;;1.23;100.00
57900;BME280;60605;53.716;19.940;2022-12-07T04:17:50;99388.84;;;1.23;100.00
57900;BME280;60605;53.716;19.940;2022-12-07T04:22:53;99381.34;;;1.22;100.00
57900;BME280;60605;53.716;19.940;2022-12-07T04:27:57;99374.17;;;1.21;100.00
57900;BME280;60605;53.716;19.940;2022-12-07T04:33:00;99372.11;;;1.21;100.00
57900;BME280;60605;53.716;19.940;2022-12-07T04:38:03;99370.42;;;1.20;100.00
57900;BME280;60605;53.716;19.940;2022-12-07T04:43:07;99361.06;;;1.18;100.00
57900;BME280;60605;53.716;19.940;2022-12-07T04:48:10;99356.79;;;1.16;100.00
57900;BME280;60605;53.716;19.940;2022-12-07T04:53:13;99353.74;;;1.15;100.00
57900;BME280;60605;53.716;19.940;2022-12-07T04:58:17;99350.27;;;1.14;100.00
57900;BME280;60605;53.716;19.940;2022-12-07T05:03:20;99344.85;;;1.14;100.00
57900;BME280;60605;53.716;19.940;2022-12-07T05:08:23;99338.38;;;1.13;100.00
57900;BME280;60605;53.716;19.940;2022-12-07T05:13:27;99336.27;;;1.13;100.00
57900;BME280;60605;53.716;19.940;2022-12-07T05:18:30;99334.68;;;1.13;100.00
57900;BME280;60605;53.716;19.940;2022-12-07T05:23:33;99328.33;;;1.14;100.00
57900;BME280;60605;53.716;19.940;2022-12-07T05:28:37;99322.42;;;1.13;100.00
57900;BME280;60605;53.716;19.940;2022-12-07T05:33:40;99320.87;;;1.12;100.00
57900;BME280;60605;53.716;19.940;2022-12-07T05:38:44;99313.15;;;1.12;100.00
57900;BME280;60605;53.716;19.940;2022-12-07T05:43:47;99311.88;;;1.13;100.00
57900;BME280;60605;53.716;19.940;2022-12-07T05:48:50;99312.31;;;1.14;100.00
57900;BME280;60605;53.716;19.940;2022-12-07T05:53:54;99314.59;;;1.14;100.00
57900;BME280;60605;53.716;19.940;2022-12-07T05:58:57;99313.73;;;1.14;100.00
57900;BME280;60605;53.716;19.940;2022-12-07T06:04:19;99314.00;;;1.15;100.00
57900;BME280;60605;53.716;19.940;2022-12-07T06:09:24;99314.73;;;1.15;100.00
57900;BME280;60605;53.716;19.940;2022-12-07T06:14:28;99310.48;;;1.15;100.00
57900;BME280;60605;53.716;19.940;2022-12-07T06:19:31;99307.98;;;1.16;100.00
57900;BME280;60605;53.716;19.940;2022-12-07T06:24:35;99305.58;;;1.17;100.00
57900;BME280;60605;53.716;19.940;2022-12-07T06:29:38;99302.23;;;1.17;100.00
57900;BME280;60605;53.716;19.940;2022-12-07T06:34:41;99298.85;;;1.18;100.00
57900;BME280;60605;53.716;19.940;2022-12-07T06:39:44;99298.45;;;1.18;100.00
57900;BME280;60605;53.716;19.940;2022-12-07T06:44:48;99293.96;;;1.19;100.00
57900;BME280;60605;53.716;19.940;2022-12-07T06:49:51;99295.19;;;1.22;100.00
57900;BME280;60605;53.716;19.940;2022-12-07T06:54:55;99295.05;;;1.23;100.00
57900;BME280;60605;53.716;19.940;2022-12-07T06:59:58;99294.77;;;1.25;100.00
57900;BME280;60605;53.716;19.940;2022-12-07T07:05:02;99285.63;;;1.27;100.00
57900;BME280;60605;53.716;19.940;2022-12-07T07:10:06;99282.42;;;1.27;100.00
57900;BME280;60605;53.716;19.940;2022-12-07T07:15:10;99278.61;;;1.29;100.00
57900;BME280;60605;53.716;19.940;2022-12-07T07:20:15;99274.70;;;1.32;100.00
57900;BME280;60605;53.716;19.940;2022-12-07T07:25:18;99272.38;;;1.34;100.00
57900;BME280;60605;53.716;19.940;2022-12-07T07:30:21;99270.77;;;1.37;100.00
57900;BME280;60605;53.716;19.940;2022-12-07T07:35:27;99269.43;;;1.41;100.00
57900;BME280;60605;53.716;19.940;2022-12-07T07:40:31;99271.70;;;1.45;100.00
57900;BME280;60605;53.716;19.940;2022-12-07T07:45:34;99274.12;;;1.48;100.00
57900;BME280;60605;53.716;19.940;2022-12-07T07:50:38;99276.13;;;1.51;100.00
57900;BME280;60605;53.716;19.940;2022-12-07T07:55:41;99278.71;;;1.54;100.00
57900;BME280;60605;53.716;19.940;2022-12-07T08:00:44;99277.89;;;1.58;100.00
57900;BME280;60605;53.716;19.940;2022-12-07T08:05:47;99279.19;;;1.61;100.00
57900;BME280;60605;53.716;19.940;2022-12-07T08:10:51;99276.42;;;1.65;100.00
57900;BME280;60605;53.716;19.940;2022-12-07T08:15:55;99268.55;;;1.69;100.00
57900;BME280;60605;53.716;19.940;2022-12-07T08:21:03;99266.85;;;1.73;100.00
57900;BME280;60605;53.716;19.940;2022-12-07T08:26:14;99266.50;;;1.79;100.00
57900;BME280;60605;53.716;19.940;2022-12-07T08:31:18;99270.47;;;1.87;100.00
57900;BME280;60605;53.716;19.940;2022-12-07T08:36:22;99272.21;;;1.94;100.00
57900;BME280;60605;53.716;19.940;2022-12-07T08:41:25;99283.06;;;1.99;100.00
57900;BME280;60605;53.716;19.940;2022-12-07T08:46:42;99282.58;;;2.04;100.00
57900;BME280;60605;53.716;19.940;2022-12-07T08:51:50;99280.23;;;2.12;100.00
57900;BME280;60605;53.716;19.940;2022-12-07T08:56:55;99277.34;;;2.21;100.00
57900;BME280;60605;53.716;19.940;2022-12-07T09:02:05;99273.11;;;2.32;100.00
57900;BME280;60605;53.716;19.940;2022-12-07T09:07:10;99273.27;;;2.45;100.00
57900;BME280;60605;53.716;19.940;2022-12-07T09:12:15;99270.77;;;2.56;100.00
57900;BME280;60605;53.716;19.940;2022-12-07T09:17:21;99263.38;;;2.66;100.00
57900;BME280;60605;53.716;19.940;2022-12-07T09:22:30;99257.66;;;2.79;100.00
57900;BME280;60605;53.716;19.940;2022-12-07T09:27:34;99248.46;;;2.90;100.00
57900;BME280;60605;53.716;19.940;2022-12-07T09:32:39;99244.73;;;2.98;100.00
57900;BME280;60605;53.716;19.940;2022-12-07T09:37:46;99247.47;;;3.05;100.00
57900;BME280;60605;53.716;19.940;2022-12-07T09:42:53;99246.02;;;3.12;100.00
57900;BME280;60605;53.716;19.940;2022-12-07T09:47:59;99244.50;;;3.17;100.00
57900;BME280;60605;53.716;19.940;2022-12-07T09:53:08;99239.84;;;3.20;100.00
57900;BME280;60605;53.716;19.940;2022-12-07T09:58:21;99236.34;;;3.22;100.00
57900;BME280;60605;53.716;19.940;2022-12-07T10:03:27;99235.11;;;3.24;100.00
57900;BME280;60605;53.716;19.940;2022-12-07T10:08:33;99233.82;;;3.24;100.00
57900;BME280;60605;53.716;19.940;2022-12-07T10:13:46;99228.79;;;3.25;100.00
57900;BME280;60605;53.716;19.940;2022-12-07T10:18:52;99227.50;;;3.26;100.00
57900;BME280;60605;53.716;19.940;2022-12-07T10:29:24;99224.24;;;3.25;100.00
57900;BME280;60605;53.716;19.940;2022-12-07T10:34:31;99223.51;;;3.23;100.00
57900;BME280;60605;53.716;19.940;2022-12-07T10:39:55;99225.34;;;3.22;100.00
57900;BME280;60605;53.716;19.940;2022-12-07T11:01:24;99219.38;;;3.34;100.00
57900;BME280;60605;53.716;19.940;2022-12-07T11:12:07;99214.77;;;3.48;100.00
57900;BME280;60605;53.716;19.940;2022-12-07T11:17:27;99213.77;;;3.60;100.00
57900;BME280;60605;53.716;19.940;2022-12-07T11:33:33;99206.52;;;3.58;100.00
57900;BME280;60605;53.716;19.940;2022-12-07T11:38:57;99202.42;;;3.52;100.00
57900;BME280;60605;53.716;19.940;2022-12-07T11:54:45;99193.94;;;3.27;100.00
57900;BME280;60605;53.716;19.940;2022-12-07T11:59:52;99197.22;;;3.13;100.00
57900;BME280;60605;53.716;19.940;2022-12-07T12:05:22;99192.69;;;3.04;100.00
57900;BME280;60605;53.716;19.940;2022-12-07T12:16:48;99196.89;;;3.03;100.00
57900;BME280;60605;53.716;19.940;2022-12-07T12:22:17;99197.48;;;3.02;100.00
57900;BME280;60605;53.716;19.940;2022-12-07T12:27:38;99190.96;;;3.00;100.00
57900;BME280;60605;53.716;19.940;2022-12-07T12:32:47;99189.59;;;2.92;100.00
57900;BME280;60605;53.716;19.940;2022-12-07T12:37:54;99174.98;;;2.81;100.00
57900;BME280;60605;53.716;19.940;2022-12-07T12:43:01;99169.67;;;2.73;100.00
57900;BME280;60605;53.716;19.940;2022-12-07T12:48:37;99171.52;;;2.80;100.00
57900;BME280;60605;53.716;19.940;2022-12-07T12:53:42;99167.42;;;2.93;100.00
57900;BME280;60605;53.716;19.940;2022-12-07T12:58:48;99161.58;;;3.01;100.00
57900;BME280;60605;53.716;19.940;2022-12-07T13:03:56;99159.42;;;3.00;100.00
57900;BME280;60605;53.716;19.940;2022-12-07T13:09:02;99156.39;;;2.90;100.00
57900;BME280;60605;53.716;19.940;2022-12-07T13:24:57;99154.95;;;2.48;100.00
57900;BME280;60605;53.716;19.940;2022-12-07T13:30:14;99146.75;;;2.37;100.00
57900;BME280;60605;53.716;19.940;2022-12-07T13:35:35;99143.92;;;2.28;100.00
57900;BME280;60605;53.716;19.940;2022-12-07T13:40:43;99142.05;;;2.21;100.00
57900;BME280;60605;53.716;19.940;2022-12-07T13:46:08;99142.31;;;2.16;100.00
57900;BME280;60605;53.716;19.940;2022-12-07T13:51:26;99137.17;;;2.13;100.00
57900;BME280;60605;53.716;19.940;2022-12-07T13:56:34;99134.80;;;2.09;100.00
57900;BME280;60605;53.716;19.940;2022-12-07T14:01:40;99135.52;;;2.05;100.00
57900;BME280;60605;53.716;19.940;2022-12-07T14:06:49;99137.89;;;2.02;100.00
57900;BME280;60605;53.716;19.940;2022-12-07T14:11:57;99138.98;;;2.00;100.00
57900;BME280;60605;53.716;19.940;2022-12-07T14:17:15;99133.48;;;1.98;100.00
57900;BME280;60605;53.716;19.940;2022-12-07T14:22:28;99127.89;;;1.96;100.00
57900;BME280;60605;53.716;19.940;2022-12-07T14:27:35;99127.27;;;1.92;100.00
57900;BME280;60605;53.716;19.940;2022-12-07T14:32:40;99133.06;;;1.90;100.00
57900;BME280;60605;53.716;19.940;2022-12-07T14:37:48;99132.84;;;1.87;100.00
57900;BME280;60605;53.716;19.940;2022-12-07T14:43:19;99128.61;;;1.82;100.00
57900;BME280;60605;53.716;19.940;2022-12-07T14:48:24;99125.99;;;1.80;100.00
57900;BME280;60605;53.716;19.940;2022-12-07T14:53:50;99127.20;;;1.78;100.00
57900;BME280;60605;53.716;19.940;2022-12-07T14:59:00;99118.52;;;1.74;100.00
57900;BME280;60605;53.716;19.940;2022-12-07T15:04:04;99118.13;;;1.69;100.00
57900;BME280;60605;53.716;19.940;2022-12-07T15:09:11;99108.38;;;1.63;100.00
57900;BME280;60605;53.716;19.940;2022-12-07T15:14:15;99105.96;;;1.61;100.00
57900;BME280;60605;53.716;19.940;2022-12-07T15:19:22;99107.98;;;1.59;100.00
57900;BME280;60605;53.716;19.940;2022-12-07T15:24:33;99108.77;;;1.58;100.00
57900;BME280;60605;53.716;19.940;2022-12-07T15:29:38;99104.49;;;1.57;100.00
57900;BME280;60605;53.716;19.940;2022-12-07T15:34:42;99105.44;;;1.56;100.00
57900;BME280;60605;53.716;19.940;2022-12-07T15:39:48;99101.98;;;1.55;100.00
57900;BME280;60605;53.716;19.940;2022-12-07T15:44:53;99100.50;;;1.56;100.00
57900;BME280;60605;53.716;19.940;2022-12-07T15:50:14;99102.34;;;1.57;100.00
57900;BME280;60605;53.716;19.940;2022-12-07T15:55:19;99101.21;;;1.58;100.00
57900;BME280;60605;53.716;19.940;2022-12-07T16:00:24;99103.80;;;1.59;100.00
57900;BME280;60605;53.716;19.940;2022-12-07T16:05:29;99101.84;;;1.59;100.00
57900;BME280;60605;53.716;19.940;2022-12-07T16:10:34;99100.29;;;1.57;100.00
57900;BME280;60605;53.716;19.940;2022-12-07T16:15:40;99095.95;;;1.56;100.00
57900;BME280;60605;53.716;19.940;2022-12-07T16:20:48;99091.04;;;1.56;100.00
57900;BME280;60605;53.716;19.940;2022-12-07T16:25:53;99088.88;;;1.56;100.00
57900;BME280;60605;53.716;19.940;2022-12-07T16:31:07;99085.00;;;1.56;100.00
57900;BME280;60605;53.716;19.940;2022-12-07T16:36:15;99082.84;;;1.57;100.00
57900;BME280;60605;53.716;19.940;2022-12-07T16:41:40;99085.42;;;1.57;100.00
57900;BME280;60605;53.716;19.940;2022-12-07T16:46:44;99082.07;;;1.56;100.00
57900;BME280;60605;53.716;19.940;2022-12-07T16:51:49;99083.20;;;1.53;100.00
57900;BME280;60605;53.716;19.940;2022-12-07T16:57:13;99076.42;;;1.51;100.00
57900;BME280;60605;53.716;19.940;2022-12-07T17:02:24;99079.27;;;1.51;100.00
57900;BME280;60605;53.716;19.940;2022-12-07T17:07:28;99077.85;;;1.52;100.00
57900;BME280;60605;53.716;19.940;2022-12-07T17:12:32;99080.53;;;1.51;100.00
57900;BME280;60605;53.716;19.940;2022-12-07T17:17:35;99082.60;;;1.49;100.00
57900;BME280;60605;53.716;19.940;2022-12-07T17:22:39;99084.45;;;1.48;100.00
57900;BME280;60605;53.716;19.940;2022-12-07T17:27:43;99085.58;;;1.47;100.00
57900;BME280;60605;53.716;19.940;2022-12-07T17:32:51;99084.36;;;1.47;100.00
57900;BME280;60605;53.716;19.940;2022-12-07T17:37:54;99083.59;;;1.48;100.00
57900;BME280;60605;53.716;19.940;2022-12-07T17:42:59;99083.15;;;1.49;100.00
57900;BME280;60605;53.716;19.940;2022-12-07T17:48:04;99082.85;;;1.49;100.00
57900;BME280;60605;53.716;19.940;2022-12-07T17:53:11;99081.38;;;1.49;100.00
57900;BME280;60605;53.716;19.940;2022-12-07T17:58:15;99080.34;;;1.51;100.00
57900;BME280;60605;53.716;19.940;2022-12-07T18:03:19;99086.95;;;1.52;100.00
57900;BME280;60605;53.716;19.940;2022-12-07T18:08:22;99084.60;;;1.53;100.00
57900;BME280;60605;53.716;19.940;2022-12-07T18:13:26;99083.04;;;1.52;100.00
57900;BME280;60605;53.716;19.940;2022-12-07T18:18:39;99081.54;;;1.52;100.00
57900;BME280;60605;53.716;19.940;2022-12-07T18:23:51;99082.70;;;1.50;100.00
57900;BME280;60605;53.716;19.940;2022-12-07T18:28:55;99085.63;;;1.49;100.00
57900;BME280;60605;53.716;19.940;2022-12-07T18:34:04;99086.45;;;1.48;100.00
57900;BME280;60605;53.716;19.940;2022-12-07T18:39:11;99083.91;;;1.46;100.00
57900;BME280;60605;53.716;19.940;2022-12-07T18:44:17;99084.29;;;1.46;100.00
57900;BME280;60605;53.716;19.940;2022-12-07T18:49:22;99082.35;;;1.46;100.00
57900;BME280;60605;53.716;19.940;2022-12-07T18:54:26;99084.83;;;1.46;100.00
57900;BME280;60605;53.716;19.940;2022-12-07T18:59:30;99083.60;;;1.46;100.00
57900;BME280;60605;53.716;19.940;2022-12-07T19:04:52;99083.98;;;1.45;100.00
57900;BME280;60605;53.716;19.940;2022-12-07T19:09:56;99080.09;;;1.46;100.00
57900;BME280;60605;53.716;19.940;2022-12-07T19:15:02;99078.15;;;1.46;100.00
57900;BME280;60605;53.716;19.940;2022-12-07T19:20:11;99075.17;;;1.45;100.00
57900;BME280;60605;53.716;19.940;2022-12-07T19:25:17;99077.23;;;1.46;100.00
57900;BME280;60605;53.716;19.940;2022-12-07T19:30:21;99082.14;;;1.46;100.00
57900;BME280;60605;53.716;19.940;2022-12-07T19:35:26;99081.02;;;1.47;100.00
57900;BME280;60605;53.716;19.940;2022-12-07T19:40:30;99079.77;;;1.47;100.00
57900;BME280;60605;53.716;19.940;2022-12-07T19:45:33;99076.34;;;1.46;100.00
57900;BME280;60605;53.716;19.940;2022-12-07T19:50:37;99075.31;;;1.46;100.00
57900;BME280;60605;53.716;19.940;2022-12-07T19:55:40;99075.36;;;1.45;100.00
57900;BME280;60605;53.716;19.940;2022-12-07T20:00:46;99075.77;;;1.45;100.00
57900;BME280;60605;53.716;19.940;2022-12-07T20:05:50;99076.40;;;1.44;100.00
57900;BME280;60605;53.716;19.940;2022-12-07T20:10:53;99079.86;;;1.42;100.00
57900;BME280;60605;53.716;19.940;2022-12-07T20:16:03;99082.01;;;1.40;100.00
57900;BME280;60605;53.716;19.940;2022-12-07T20:21:21;99087.05;;;1.36;100.00
57900;BME280;60605;53.716;19.940;2022-12-07T20:26:27;99092.12;;;1.34;100.00
57900;BME280;60605;53.716;19.940;2022-12-07T20:31:30;99096.23;;;1.33;100.00
57900;BME280;60605;53.716;19.940;2022-12-07T20:36:34;99091.38;;;1.33;100.00
57900;BME280;60605;53.716;19.940;2022-12-07T20:41:39;99091.58;;;1.32;100.00
57900;BME280;60605;53.716;19.940;2022-12-07T20:47:02;99094.71;;;1.33;100.00
57900;BME280;60605;53.716;19.940;2022-12-07T20:52:06;99089.68;;;1.32;100.00
57900;BME280;60605;53.716;19.940;2022-12-07T20:57:11;99090.14;;;1.31;100.00
57900;BME280;60605;53.716;19.940;2022-12-07T21:02:16;99098.27;;;1.30;100.00
57900;BME280;60605;53.716;19.940;2022-12-07T21:07:20;99101.20;;;1.29;100.00
57900;BME280;60605;53.716;19.940;2022-12-07T21:12:24;99105.75;;;1.29;100.00
57900;BME280;60605;53.716;19.940;2022-12-07T21:17:27;99112.20;;;1.28;100.00
57900;BME280;60605;53.716;19.940;2022-12-07T21:22:32;99121.44;;;1.26;100.00
57900;BME280;60605;53.716;19.940;2022-12-07T21:27:35;99127.37;;;1.25;100.00
57900;BME280;60605;53.716;19.940;2022-12-07T21:32:38;99129.91;;;1.24;100.00
57900;BME280;60605;53.716;19.940;2022-12-07T21:37:42;99140.99;;;1.24;100.00
57900;BME280;60605;53.716;19.940;2022-12-07T21:42:46;99141.92;;;1.23;100.00
57900;BME280;60605;53.716;19.940;2022-12-07T21:47:49;99142.55;;;1.22;100.00
57900;BME280;60605;53.716;19.940;2022-12-07T21:52:52;99147.59;;;1.20;100.00
57900;BME280;60605;53.716;19.940;2022-12-07T21:57:55;99152.99;;;1.19;100.00
57900;BME280;60605;53.716;19.940;2022-12-07T22:02:59;99155.23;;;1.17;100.00
57900;BME280;60605;53.716;19.940;2022-12-07T22:08:03;99161.51;;;1.16;100.00
57900;BME280;60605;53.716;19.940;2022-12-07T22:13:07;99163.36;;;1.15;100.00
57900;BME280;60605;53.716;19.940;2022-12-07T22:18:11;99167.22;;;1.12;100.00
57900;BME280;60605;53.716;19.940;2022-12-07T22:23:15;99163.11;;;1.11;100.00
57900;BME280;60605;53.716;19.940;2022-12-07T22:28:18;99166.09;;;1.09;100.00
57900;BME280;60605;53.716;19.940;2022-12-07T22:33:22;99165.71;;;1.07;100.00
57900;BME280;60605;53.716;19.940;2022-12-07T22:38:26;99169.54;;;1.05;100.00
57900;BME280;60605;53.716;19.940;2022-12-07T22:43:29;99170.29;;;1.03;100.00
57900;BME280;60605;53.716;19.940;2022-12-07T22:48:32;99177.77;;;1.01;100.00
57900;BME280;60605;53.716;19.940;2022-12-07T22:53:36;99187.84;;;1.01;100.00
57900;BME280;60605;53.716;19.940;2022-12-07T22:58:40;99190.51;;;1.00;100.00
57900;BME280;60605;53.716;19.940;2022-12-07T23:03:44;99194.82;;;0.99;100.00
57900;BME280;60605;53.716;19.940;2022-12-07T23:08:48;99194.94;;;0.98;100.00
57900;BME280;60605;53.716;19.940;2022-12-07T23:13:52;99192.27;;;0.96;100.00
57900;BME280;60605;53.716;19.940;2022-12-07T23:18:55;99196.05;;;0.95;100.00
57900;BME280;60605;53.716;19.940;2022-12-07T23:23:59;99200.44;;;0.92;100.00
57900;BME280;60605;53.716;19.940;2022-12-07T23:29:02;99203.70;;;0.91;100.00
57900;BME280;60605;53.716;19.940;2022-12-07T23:34:05;99203.17;;;0.89;100.00
57900;BME280;60605;53.716;19.940;2022-12-07T23:39:09;99197.68;;;0.88;100.00
57900;BME280;60605;53.716;19.940;2022-12-07T23:44:13;99199.58;;;0.86;100.00
57900;BME280;60605;53.716;19.940;2022-12-07T23:49:16;99202.80;;;0.85;100.00
57900;BME280;60605;53.716;19.940;2022-12-07T23:54:20;99208.65;;;0.84;100.00
57900;BME280;60605;53.716;19.940;2022-12-07T23:59:24;99216.25;;;0.84;100.00
